Arnold, Nebraska
Current Conditions -  °F | °C
As of 1:53 AM on Saturday 25 Oct 2014 (Local Time) from KBBW Reporting Station
Clear Clear  
Wind Chill: 42°   Ceiling: Unl
Heat Index: 42°   Visibility: 10mi
Dew Point: 38°   Wind: 3mph
Humidity: 85%   Direction: 10°N
Pressure: 30.07"   Gusts: NA
Location:  41.42°N, 100.19°W
Report Text: KBBW 250653Z AUTO 01003KT 10SM CLR 06/03 A3007 RMK AO2 SLP170 T00560033
Loading
Personal Weather Stations






























Interactive Weather Map
Tropical Storm Tracking
New forecast layout! Learn more

10-Day Weather Forecast

Advertisements
Track Severe Weather on mobile